LTAT/MLX METAR and TAF weather

Enter ICAO airport designator
Station Type Date Time Source
LTAT METAR 2021/09/27 06:50 UTC NOAA

LTAT 270650Z 13004KT 070V190 CAVOK 19/02 Q1017 NOSIG


Station Type Date Time Source
LTAT Decoded METAR 2021/09/27 06:50 UTC NOAA

Malatya / Erhac, Turkey (LTAT) 38-26N 038-05E 849M
Sep 27, 2021 - 02:50 AM EDT / 2021.09.27 0650 UTC
Wind: from the SE (130 degrees) at 5 MPH (4 KT) (direction variable):0
Visibility: greater than 7 mile(s):0
Temperature: 66 F (19 C)
Dew Point: 35 F (2 C)
Relative Humidity: 32%
Pressure (altimeter): 30.03 in. Hg (1017 hPa)
ob: LTAT 270650Z 13004KT 070V190 CAVOK 19/02 Q1017 NOSIG
cycle: 7

Station Type Date Time Source
LTAT TAF 2021/09/27 06:03 UTC NOAA

TAF LTAT 270440Z 2706/2806 VRB02KT CAVOK

Example: see airport list